sensor_id;sensor_type;location;lat;lon;timestamp;pressure;altitude;pressure_sealevel;temperature;humidity
60832;BME280;46665;51.558;-0.448;2022-07-23T00:00:30;101449.34;;;16.67;84.40
60832;BME280;46665;51.558;-0.448;2022-07-23T00:02:55;101449.72;;;16.60;84.47
60832;BME280;46665;51.558;-0.448;2022-07-23T00:05:21;101448.41;;;16.58;84.66
60832;BME280;46665;51.558;-0.448;2022-07-23T00:07:46;101453.47;;;16.51;84.30
60832;BME280;46665;51.558;-0.448;2022-07-23T00:10:12;101449.72;;;16.46;85.25
60832;BME280;46665;51.558;-0.448;2022-07-23T00:12:38;101452.03;;;16.39;85.57
60832;BME280;46665;51.558;-0.448;2022-07-23T00:15:04;101451.06;;;16.30;86.15
60832;BME280;46665;51.558;-0.448;2022-07-23T00:17:30;101460.00;;;16.22;86.69
60832;BME280;46665;51.558;-0.448;2022-07-23T00:19:55;101452.97;;;16.16;87.11
60832;BME280;46665;51.558;-0.448;2022-07-23T00:22:21;101442.56;;;16.13;87.42
60832;BME280;46665;51.558;-0.448;2022-07-23T00:24:46;101440.94;;;16.12;87.13
60832;BME280;46665;51.558;-0.448;2022-07-23T00:27:12;101445.81;;;16.15;86.67
60832;BME280;46665;51.558;-0.448;2022-07-23T00:29:37;101446.97;;;16.14;87.05
60832;BME280;46665;51.558;-0.448;2022-07-23T00:32:03;101452.22;;;16.10;87.36
60832;BME280;46665;51.558;-0.448;2022-07-23T00:34:28;101445.78;;;16.01;88.12
60832;BME280;46665;51.558;-0.448;2022-07-23T00:36:54;101452.16;;;15.96;88.15
60832;BME280;46665;51.558;-0.448;2022-07-23T00:39:20;101451.72;;;15.89;88.16
60832;BME280;46665;51.558;-0.448;2022-07-23T00:41:47;101443.88;;;15.82;88.47
60832;BME280;46665;51.558;-0.448;2022-07-23T00:46:46;101444.50;;;15.74;89.14
60832;BME280;46665;51.558;-0.448;2022-07-23T00:49:12;101436.88;;;15.71;89.60
60832;BME280;46665;51.558;-0.448;2022-07-23T00:51:37;101439.38;;;15.68;90.13
60832;BME280;46665;51.558;-0.448;2022-07-23T00:54:03;101436.19;;;15.60;90.69
60832;BME280;46665;51.558;-0.448;2022-07-23T00:56:30;101439.22;;;15.59;90.97
60832;BME280;46665;51.558;-0.448;2022-07-23T00:58:56;101433.72;;;15.59;91.11
60832;BME280;46665;51.558;-0.448;2022-07-23T01:01:22;101429.28;;;15.63;91.08
60832;BME280;46665;51.558;-0.448;2022-07-23T01:03:47;101429.81;;;15.65;91.33
60832;BME280;46665;51.558;-0.448;2022-07-23T01:06:13;101430.03;;;15.69;91.57
60832;BME280;46665;51.558;-0.448;2022-07-23T01:08:39;101424.50;;;15.74;91.49
60832;BME280;46665;51.558;-0.448;2022-07-23T01:11:05;101429.63;;;15.80;91.40
60832;BME280;46665;51.558;-0.448;2022-07-23T01:13:30;101428.50;;;15.81;91.34
60832;BME280;46665;51.558;-0.448;2022-07-23T01:15:56;101438.06;;;15.84;91.21
60832;BME280;46665;51.558;-0.448;2022-07-23T01:18:21;101429.56;;;15.86;91.45
60832;BME280;46665;51.558;-0.448;2022-07-23T01:20:47;101433.91;;;15.87;91.73
60832;BME280;46665;51.558;-0.448;2022-07-23T01:23:12;101427.53;;;15.91;91.54
60832;BME280;46665;51.558;-0.448;2022-07-23T01:25:47;101429.91;;;15.98;91.07
60832;BME280;46665;51.558;-0.448;2022-07-23T01:28:12;101428.72;;;16.04;90.59
60832;BME280;46665;51.558;-0.448;2022-07-23T01:30:38;101417.13;;;16.07;90.45
60832;BME280;46665;51.558;-0.448;2022-07-23T01:33:03;101420.31;;;16.14;89.75
60832;BME280;46665;51.558;-0.448;2022-07-23T01:35:29;101418.28;;;16.20;89.21
60832;BME280;46665;51.558;-0.448;2022-07-23T01:37:54;101422.38;;;16.22;89.19
60832;BME280;46665;51.558;-0.448;2022-07-23T01:40:19;101419.63;;;16.22;89.16
60832;BME280;46665;51.558;-0.448;2022-07-23T01:42:45;101419.63;;;16.22;88.86
60832;BME280;46665;51.558;-0.448;2022-07-23T01:45:10;101430.41;;;16.19;89.15
60832;BME280;46665;51.558;-0.448;2022-07-23T01:47:36;101433.75;;;16.16;89.67
60832;BME280;46665;51.558;-0.448;2022-07-23T01:50:01;101425.50;;;16.16;89.50
60832;BME280;46665;51.558;-0.448;2022-07-23T01:52:27;101428.47;;;16.19;89.39
60832;BME280;46665;51.558;-0.448;2022-07-23T01:54:53;101424.00;;;16.23;89.32
60832;BME280;46665;51.558;-0.448;2022-07-23T01:57:18;101414.13;;;16.22;89.23
60832;BME280;46665;51.558;-0.448;2022-07-23T01:59:43;101410.28;;;16.23;89.37
60832;BME280;46665;51.558;-0.448;2022-07-23T02:02:09;101418.53;;;16.23;89.16
60832;BME280;46665;51.558;-0.448;2022-07-23T02:04:35;101415.16;;;16.27;89.15
60832;BME280;46665;51.558;-0.448;2022-07-23T02:07:02;101423.13;;;16.28;89.09
60832;BME280;46665;51.558;-0.448;2022-07-23T02:09:28;101422.28;;;16.28;89.20
60832;BME280;46665;51.558;-0.448;2022-07-23T02:11:53;101424.53;;;16.25;88.96
60832;BME280;46665;51.558;-0.448;2022-07-23T02:14:19;101421.78;;;16.25;89.05
60832;BME280;46665;51.558;-0.448;2022-07-23T02:16:44;101419.03;;;16.25;88.89
60832;BME280;46665;51.558;-0.448;2022-07-23T02:19:09;101418.44;;;16.29;88.75
60832;BME280;46665;51.558;-0.448;2022-07-23T02:21:35;101418.94;;;16.31;88.69
60832;BME280;46665;51.558;-0.448;2022-07-23T02:24:01;101422.19;;;16.33;88.22
60832;BME280;46665;51.558;-0.448;2022-07-23T02:26:26;101425.25;;;16.31;88.27
60832;BME280;46665;51.558;-0.448;2022-07-23T02:28:52;101420.06;;;16.30;88.17
60832;BME280;46665;51.558;-0.448;2022-07-23T02:31:18;101416.28;;;16.25;88.52
60832;BME280;46665;51.558;-0.448;2022-07-23T02:33:43;101424.00;;;16.23;88.49
60832;BME280;46665;51.558;-0.448;2022-07-23T02:36:09;101416.75;;;16.14;88.96
60832;BME280;46665;51.558;-0.448;2022-07-23T02:38:34;101424.19;;;16.13;89.28
60832;BME280;46665;51.558;-0.448;2022-07-23T02:41:00;101410.44;;;16.13;89.47
60832;BME280;46665;51.558;-0.448;2022-07-23T02:43:25;101415.94;;;16.13;89.29
60832;BME280;46665;51.558;-0.448;2022-07-23T02:45:51;101425.00;;;16.14;89.65
60832;BME280;46665;51.558;-0.448;2022-07-23T02:48:16;101428.25;;;16.16;89.56
60832;BME280;46665;51.558;-0.448;2022-07-23T02:50:41;101422.44;;;16.17;89.35
60832;BME280;46665;51.558;-0.448;2022-07-23T02:53:07;101424.63;;;16.20;89.28
60832;BME280;46665;51.558;-0.448;2022-07-23T02:55:32;101427.56;;;16.24;89.28
60832;BME280;46665;51.558;-0.448;2022-07-23T02:57:58;101429.72;;;16.27;89.20
60832;BME280;46665;51.558;-0.448;2022-07-23T03:00:23;101427.78;;;16.28;89.20
60832;BME280;46665;51.558;-0.448;2022-07-23T03:02:49;101425.25;;;16.31;89.19
60832;BME280;46665;51.558;-0.448;2022-07-23T03:05:15;101432.59;;;16.36;88.97
60832;BME280;46665;51.558;-0.448;2022-07-23T03:07:40;101427.09;;;16.36;88.87
60832;BME280;46665;51.558;-0.448;2022-07-23T03:10:06;101424.03;;;16.37;88.76
60832;BME280;46665;51.558;-0.448;2022-07-23T03:12:31;101428.44;;;16.38;88.79
60832;BME280;46665;51.558;-0.448;2022-07-23T03:14:57;101420.47;;;16.37;88.94
60832;BME280;46665;51.558;-0.448;2022-07-23T03:17:22;101427.31;;;16.39;88.85
60832;BME280;46665;51.558;-0.448;2022-07-23T03:19:48;101422.63;;;16.40;88.63
60832;BME280;46665;51.558;-0.448;2022-07-23T03:22:13;101424.75;;;16.43;89.09
60832;BME280;46665;51.558;-0.448;2022-07-23T03:24:38;101421.44;;;16.46;88.77
60832;BME280;46665;51.558;-0.448;2022-07-23T03:27:26;101416.44;;;16.48;88.60
60832;BME280;46665;51.558;-0.448;2022-07-23T03:29:53;101414.81;;;16.47;88.96
60832;BME280;46665;51.558;-0.448;2022-07-23T03:32:18;101410.44;;;16.46;88.59
60832;BME280;46665;51.558;-0.448;2022-07-23T03:34:44;101406.66;;;16.42;88.87
60832;BME280;46665;51.558;-0.448;2022-07-23T03:37:10;101409.22;;;16.38;88.56
60832;BME280;46665;51.558;-0.448;2022-07-23T03:39:35;101409.88;;;16.30;89.43
60832;BME280;46665;51.558;-0.448;2022-07-23T03:42:01;101410.56;;;16.22;89.61
60832;BME280;46665;51.558;-0.448;2022-07-23T03:44:26;101413.19;;;16.13;90.00
60832;BME280;46665;51.558;-0.448;2022-07-23T03:46:52;101413.06;;;16.04;90.75
60832;BME280;46665;51.558;-0.448;2022-07-23T03:49:17;101406.31;;;15.97;90.85
60832;BME280;46665;51.558;-0.448;2022-07-23T03:51:43;101406.72;;;15.90;91.09
60832;BME280;46665;51.558;-0.448;2022-07-23T03:54:09;101412.56;;;15.84;91.18
60832;BME280;46665;51.558;-0.448;2022-07-23T03:56:35;101408.84;;;15.74;92.30
60832;BME280;46665;51.558;-0.448;2022-07-23T03:59:00;101396.91;;;15.65;93.04
60832;BME280;46665;51.558;-0.448;2022-07-23T04:01:26;101402.53;;;15.55;93.40
60832;BME280;46665;51.558;-0.448;2022-07-23T04:03:51;101407.25;;;15.49;93.95
60832;BME280;46665;51.558;-0.448;2022-07-23T04:06:17;101407.63;;;15.43;94.05
60832;BME280;46665;51.558;-0.448;2022-07-23T04:08:43;101407.47;;;15.34;94.29
60832;BME280;46665;51.558;-0.448;2022-07-23T04:11:08;101408.38;;;15.29;95.30
60832;BME280;46665;51.558;-0.448;2022-07-23T04:13:33;101416.06;;;15.27;95.49
60832;BME280;46665;51.558;-0.448;2022-07-23T04:15:59;101403.16;;;15.28;95.91
60832;BME280;46665;51.558;-0.448;2022-07-23T04:18:24;101409.78;;;15.27;96.62
60832;BME280;46665;51.558;-0.448;2022-07-23T04:20:53;101411.69;;;15.26;96.63
60832;BME280;46665;51.558;-0.448;2022-07-23T04:23:19;101407.31;;;15.25;96.70
60832;BME280;46665;51.558;-0.448;2022-07-23T04:25:44;101414.13;;;15.28;96.94
60832;BME280;46665;51.558;-0.448;2022-07-23T04:28:09;101401.22;;;15.28;96.96
60832;BME280;46665;51.558;-0.448;2022-07-23T04:30:35;101404.78;;;15.29;96.60
60832;BME280;46665;51.558;-0.448;2022-07-23T04:33:00;101416.59;;;15.29;96.46
60832;BME280;46665;51.558;-0.448;2022-07-23T04:35:26;101410.06;;;15.25;96.25
60832;BME280;46665;51.558;-0.448;2022-07-23T04:37:52;101408.41;;;15.24;95.95
60832;BME280;46665;51.558;-0.448;2022-07-23T04:40:17;101413.88;;;15.24;96.11
60832;BME280;46665;51.558;-0.448;2022-07-23T04:42:43;101402.44;;;15.22;96.76
60832;BME280;46665;51.558;-0.448;2022-07-23T04:45:09;101411.22;;;15.19;96.98
60832;BME280;46665;51.558;-0.448;2022-07-23T04:47:35;101407.44;;;15.15;98.25
60832;BME280;46665;51.558;-0.448;2022-07-23T04:50:00;101404.16;;;15.13;98.94
60832;BME280;46665;51.558;-0.448;2022-07-23T04:52:26;101403.91;;;15.14;98.37
60832;BME280;46665;51.558;-0.448;2022-07-23T04:54:51;101410.19;;;15.15;99.67
60832;BME280;46665;51.558;-0.448;2022-07-23T04:57:16;101409.59;;;15.18;100.00
60832;BME280;46665;51.558;-0.448;2022-07-23T04:59:42;101419.97;;;15.21;100.00
60832;BME280;46665;51.558;-0.448;2022-07-23T05:02:07;101418.28;;;15.25;100.00
60832;BME280;46665;51.558;-0.448;2022-07-23T05:04:33;101419.09;;;15.26;100.00
60832;BME280;46665;51.558;-0.448;2022-07-23T05:06:59;101423.47;;;15.27;100.00
60832;BME280;46665;51.558;-0.448;2022-07-23T05:09:25;101422.56;;;15.31;100.00
60832;BME280;46665;51.558;-0.448;2022-07-23T05:11:50;101425.03;;;15.33;100.00
60832;BME280;46665;51.558;-0.448;2022-07-23T05:14:16;101429.34;;;15.39;100.00
60832;BME280;46665;51.558;-0.448;2022-07-23T05:16:41;101423.84;;;15.39;100.00
60832;BME280;46665;51.558;-0.448;2022-07-23T05:19:07;101437.50;;;15.44;100.00
60832;BME280;46665;51.558;-0.448;2022-07-23T05:21:32;101435.00;;;15.48;100.00
60832;BME280;46665;51.558;-0.448;2022-07-23T05:23:58;101439.16;;;15.45;100.00
60832;BME280;46665;51.558;-0.448;2022-07-23T05:26:24;101428.69;;;15.47;100.00
60832;BME280;46665;51.558;-0.448;2022-07-23T05:28:50;101431.44;;;15.47;100.00
60832;BME280;46665;51.558;-0.448;2022-07-23T05:31:16;101418.47;;;15.53;100.00
60832;BME280;46665;51.558;-0.448;2022-07-23T05:33:41;101419.72;;;15.60;100.00
60832;BME280;46665;51.558;-0.448;2022-07-23T05:36:07;101424.81;;;15.67;100.00
60832;BME280;46665;51.558;-0.448;2022-07-23T05:38:33;101431.03;;;15.78;100.00
60832;BME280;46665;51.558;-0.448;2022-07-23T05:40:59;101435.56;;;15.88;100.00
60832;BME280;46665;51.558;-0.448;2022-07-23T05:43:24;101431.69;;;15.89;100.00
60832;BME280;46665;51.558;-0.448;2022-07-23T05:45:50;101437.84;;;15.99;100.00
60832;BME280;46665;51.558;-0.448;2022-07-23T05:48:15;101426.50;;;16.06;99.33
60832;BME280;46665;51.558;-0.448;2022-07-23T05:50:41;101427.13;;;16.17;98.70
60832;BME280;46665;51.558;-0.448;2022-07-23T05:53:06;101431.84;;;16.30;99.03
60832;BME280;46665;51.558;-0.448;2022-07-23T05:55:32;101427.00;;;16.41;97.71
60832;BME280;46665;51.558;-0.448;2022-07-23T05:57:58;101428.25;;;16.49;96.27
60832;BME280;46665;51.558;-0.448;2022-07-23T06:00:24;101421.44;;;16.46;94.45
60832;BME280;46665;51.558;-0.448;2022-07-23T06:02:50;101421.34;;;16.51;94.91
60832;BME280;46665;51.558;-0.448;2022-07-23T06:05:16;101423.56;;;16.49;94.82
60832;BME280;46665;51.558;-0.448;2022-07-23T06:07:41;101432.31;;;16.51;95.09
60832;BME280;46665;51.558;-0.448;2022-07-23T06:10:07;101434.03;;;16.47;93.90
60832;BME280;46665;51.558;-0.448;2022-07-23T06:12:33;101433.59;;;16.40;94.67
60832;BME280;46665;51.558;-0.448;2022-07-23T06:14:58;101434.75;;;16.53;94.51
60832;BME280;46665;51.558;-0.448;2022-07-23T06:17:24;101438.66;;;16.65;94.98
60832;BME280;46665;51.558;-0.448;2022-07-23T06:19:49;101440.09;;;16.77;93.39
60832;BME280;46665;51.558;-0.448;2022-07-23T06:22:15;101442.28;;;16.80;92.47
60832;BME280;46665;51.558;-0.448;2022-07-23T06:24:40;101441.63;;;16.69;92.15
60832;BME280;46665;51.558;-0.448;2022-07-23T06:27:06;101441.31;;;16.71;92.22
60832;BME280;46665;51.558;-0.448;2022-07-23T06:29:31;101441.50;;;16.60;92.53
60832;BME280;46665;51.558;-0.448;2022-07-23T06:31:57;101436.50;;;16.49;93.37
60832;BME280;46665;51.558;-0.448;2022-07-23T06:34:22;101436.81;;;16.61;93.97
60832;BME280;46665;51.558;-0.448;2022-07-23T06:36:48;101442.44;;;16.69;93.29
60832;BME280;46665;51.558;-0.448;2022-07-23T06:39:13;101437.66;;;16.75;92.80
60832;BME280;46665;51.558;-0.448;2022-07-23T06:41:38;101447.84;;;16.75;92.15
60832;BME280;46665;51.558;-0.448;2022-07-23T06:44:04;101443.16;;;16.75;91.81
60832;BME280;46665;51.558;-0.448;2022-07-23T06:46:30;101440.66;;;16.79;90.99
60832;BME280;46665;51.558;-0.448;2022-07-23T06:48:55;101452.13;;;16.81;91.43
60832;BME280;46665;51.558;-0.448;2022-07-23T06:51:21;101457.22;;;16.74;91.85
60832;BME280;46665;51.558;-0.448;2022-07-23T06:53:46;101462.69;;;16.74;91.76
60832;BME280;46665;51.558;-0.448;2022-07-23T06:56:12;101456.88;;;16.75;91.44
60832;BME280;46665;51.558;-0.448;2022-07-23T06:58:37;101453.94;;;16.72;91.80
60832;BME280;46665;51.558;-0.448;2022-07-23T07:01:03;101456.88;;;16.75;91.55
60832;BME280;46665;51.558;-0.448;2022-07-23T07:03:28;101445.03;;;16.80;92.07
60832;BME280;46665;51.558;-0.448;2022-07-23T07:05:54;101445.44;;;16.87;91.43
60832;BME280;46665;51.558;-0.448;2022-07-23T07:08:19;101446.75;;;16.89;91.17
60832;BME280;46665;51.558;-0.448;2022-07-23T07:10:45;101446.16;;;16.93;91.81
60832;BME280;46665;51.558;-0.448;2022-07-23T07:13:10;101442.28;;;16.94;89.69
60832;BME280;46665;51.558;-0.448;2022-07-23T07:15:36;101431.06;;;16.90;90.29
60832;BME280;46665;51.558;-0.448;2022-07-23T07:18:01;101448.50;;;16.99;90.58
60832;BME280;46665;51.558;-0.448;2022-07-23T07:20:27;101457.13;;;17.06;90.26
60832;BME280;46665;51.558;-0.448;2022-07-23T07:22:52;101444.94;;;17.13;89.28
60832;BME280;46665;51.558;-0.448;2022-07-23T07:25:18;101453.19;;;17.13;88.67
60832;BME280;46665;51.558;-0.448;2022-07-23T07:27:43;101460.81;;;17.16;88.61
60832;BME280;46665;51.558;-0.448;2022-07-23T07:30:10;101454.59;;;17.24;88.29
60832;BME280;46665;51.558;-0.448;2022-07-23T07:32:35;101448.69;;;17.30;87.36
60832;BME280;46665;51.558;-0.448;2022-07-23T07:35:03;101445.63;;;17.18;87.93
60832;BME280;46665;51.558;-0.448;2022-07-23T07:37:29;101440.66;;;17.20;87.00
60832;BME280;46665;51.558;-0.448;2022-07-23T07:39:55;101442.16;;;17.26;87.80
60832;BME280;46665;51.558;-0.448;2022-07-23T07:42:20;101451.63;;;17.34;86.36
60832;BME280;46665;51.558;-0.448;2022-07-23T07:44:46;101456.22;;;17.39;86.42
60832;BME280;46665;51.558;-0.448;2022-07-23T07:47:11;101448.88;;;17.34;85.81
60832;BME280;46665;51.558;-0.448;2022-07-23T07:49:37;101451.41;;;17.44;86.76
60832;BME280;46665;51.558;-0.448;2022-07-23T07:52:02;101448.25;;;17.51;85.59
60832;BME280;46665;51.558;-0.448;2022-07-23T07:54:28;101453.34;;;17.58;84.45
60832;BME280;46665;51.558;-0.448;2022-07-23T07:56:54;101450.59;;;17.58;84.72
60832;BME280;46665;51.558;-0.448;2022-07-23T07:59:19;101450.78;;;17.61;83.85
60832;BME280;46665;51.558;-0.448;2022-07-23T08:01:45;101453.63;;;17.70;84.64
60832;BME280;46665;51.558;-0.448;2022-07-23T08:04:10;101458.53;;;17.73;81.88
60832;BME280;46665;51.558;-0.448;2022-07-23T08:06:36;101464.84;;;17.73;81.74
60832;BME280;46665;51.558;-0.448;2022-07-23T08:09:01;101465.25;;;17.81;81.88
60832;BME280;46665;51.558;-0.448;2022-07-23T08:11:26;101467.38;;;17.84;81.83
60832;BME280;46665;51.558;-0.448;2022-07-23T08:13:52;101466.06;;;17.81;78.63
60832;BME280;46665;51.558;-0.448;2022-07-23T08:16:17;101461.47;;;17.90;78.08
60832;BME280;46665;51.558;-0.448;2022-07-23T08:18:43;101454.00;;;17.91;78.57
60832;BME280;46665;51.558;-0.448;2022-07-23T08:21:08;101453.69;;;17.92;78.78
60832;BME280;46665;51.558;-0.448;2022-07-23T08:23:34;101452.44;;;17.98;77.33
60832;BME280;46665;51.558;-0.448;2022-07-23T08:26:00;101448.13;;;18.06;75.67
60832;BME280;46665;51.558;-0.448;2022-07-23T08:28:26;101451.69;;;18.07;74.65
60832;BME280;46665;51.558;-0.448;2022-07-23T08:30:52;101454.44;;;18.07;74.20
60832;BME280;46665;51.558;-0.448;2022-07-23T08:33:18;101450.13;;;18.14;73.53
60832;BME280;46665;51.558;-0.448;2022-07-23T08:35:45;101455.09;;;18.26;73.32
60832;BME280;46665;51.558;-0.448;2022-07-23T08:38:14;101455.00;;;18.40;72.48
60832;BME280;46665;51.558;-0.448;2022-07-23T08:40:42;101452.75;;;18.42;72.99
60832;BME280;46665;51.558;-0.448;2022-07-23T08:43:11;101461.28;;;18.54;74.06
60832;BME280;46665;51.558;-0.448;2022-07-23T08:45:42;101448.97;;;18.60;69.60
60832;BME280;46665;51.558;-0.448;2022-07-23T08:48:11;101456.00;;;18.67;69.01
60832;BME280;46665;51.558;-0.448;2022-07-23T08:50:37;101451.66;;;18.74;69.09
60832;BME280;46665;51.558;-0.448;2022-07-23T08:53:07;101459.81;;;18.79;69.13
60832;BME280;46665;51.558;-0.448;2022-07-23T08:55:34;101448.31;;;18.86;69.02
60832;BME280;46665;51.558;-0.448;2022-07-23T08:58:00;101454.38;;;18.97;68.47
60832;BME280;46665;51.558;-0.448;2022-07-23T09:00:25;101451.13;;;18.95;66.43
60832;BME280;46665;51.558;-0.448;2022-07-23T09:02:51;101458.44;;;18.99;66.44
60832;BME280;46665;51.558;-0.448;2022-07-23T09:05:17;101451.97;;;19.04;66.67
60832;BME280;46665;51.558;-0.448;2022-07-23T09:10:55;101454.25;;;19.11;63.26
60832;BME280;46665;51.558;-0.448;2022-07-23T09:13:46;101443.72;;;19.13;62.40
60832;BME280;46665;51.558;-0.448;2022-07-23T09:16:30;101447.78;;;19.15;61.71
60832;BME280;46665;51.558;-0.448;2022-07-23T09:18:59;101456.72;;;19.21;59.68
60832;BME280;46665;51.558;-0.448;2022-07-23T09:21:28;101447.19;;;19.27;57.01
60832;BME280;46665;51.558;-0.448;2022-07-23T09:26:25;101449.00;;;19.40;55.88
60832;BME280;46665;51.558;-0.448;2022-07-23T09:29:18;101450.16;;;19.48;57.05
60832;BME280;46665;51.558;-0.448;2022-07-23T09:31:47;101448.22;;;19.57;55.33
60832;BME280;46665;51.558;-0.448;2022-07-23T09:34:18;101458.66;;;19.69;54.51
60832;BME280;46665;51.558;-0.448;2022-07-23T09:36:44;101451.19;;;19.69;55.75
60832;BME280;46665;51.558;-0.448;2022-07-23T09:39:11;101452.50;;;19.81;57.08
60832;BME280;46665;51.558;-0.448;2022-07-23T09:41:42;101451.69;;;19.89;54.46
60832;BME280;46665;51.558;-0.448;2022-07-23T09:44:19;101448.25;;;19.92;54.74
60832;BME280;46665;51.558;-0.448;2022-07-23T09:46:47;101451.66;;;19.98;54.89
60832;BME280;46665;51.558;-0.448;2022-07-23T09:49:22;101444.03;;;20.12;54.84
60832;BME280;46665;51.558;-0.448;2022-07-23T09:51:54;101450.69;;;20.20;52.91
60832;BME280;46665;51.558;-0.448;2022-07-23T09:57:02;101449.88;;;20.28;51.56
60832;BME280;46665;51.558;-0.448;2022-07-23T09:59:36;101438.19;;;20.31;51.06
60832;BME280;46665;51.558;-0.448;2022-07-23T10:02:03;101451.97;;;20.40;49.62
60832;BME280;46665;51.558;-0.448;2022-07-23T10:04:31;101443.34;;;20.41;50.18
60832;BME280;46665;51.558;-0.448;2022-07-23T10:07:03;101449.16;;;20.48;49.41
60832;BME280;46665;51.558;-0.448;2022-07-23T10:09:31;101446.25;;;20.45;48.26
60832;BME280;46665;51.558;-0.448;2022-07-23T10:12:00;101451.47;;;20.55;50.15
60832;BME280;46665;51.558;-0.448;2022-07-23T10:14:34;101455.69;;;20.61;50.31
60832;BME280;46665;51.558;-0.448;2022-07-23T10:17:03;101456.97;;;20.72;49.34
60832;BME280;46665;51.558;-0.448;2022-07-23T10:19:30;101462.13;;;20.83;48.51
60832;BME280;46665;51.558;-0.448;2022-07-23T10:22:00;101443.94;;;20.73;48.74
60832;BME280;46665;51.558;-0.448;2022-07-23T10:35:07;101450.50;;;21.07;48.79
60832;BME280;46665;51.558;-0.448;2022-07-23T10:37:41;101449.28;;;21.16;49.23
60832;BME280;46665;51.558;-0.448;2022-07-23T10:40:15;101453.16;;;21.24;47.96
60832;BME280;46665;51.558;-0.448;2022-07-23T10:42:46;101454.97;;;21.20;46.86
60832;BME280;46665;51.558;-0.448;2022-07-23T10:47:51;101446.56;;;21.37;48.40
60832;BME280;46665;51.558;-0.448;2022-07-23T10:50:29;101442.00;;;21.41;47.19
60832;BME280;46665;51.558;-0.448;2022-07-23T10:58:01;101436.97;;;21.64;48.90
60832;BME280;46665;51.558;-0.448;2022-07-23T11:00:28;101424.41;;;21.67;47.95
60832;BME280;46665;51.558;-0.448;2022-07-23T11:02:59;101430.41;;;21.69;48.51
60832;BME280;46665;51.558;-0.448;2022-07-23T11:05:40;101431.97;;;21.79;47.96
60832;BME280;46665;51.558;-0.448;2022-07-23T11:24:05;101428.53;;;22.36;45.96
60832;BME280;46665;51.558;-0.448;2022-07-23T11:31:55;101426.19;;;22.71;44.35
60832;BME280;46665;51.558;-0.448;2022-07-23T11:36:58;101423.44;;;22.71;45.21
60832;BME280;46665;51.558;-0.448;2022-07-23T11:39:27;101417.53;;;22.85;44.99
60832;BME280;46665;51.558;-0.448;2022-07-23T11:41:53;101411.50;;;22.96;43.51
60832;BME280;46665;51.558;-0.448;2022-07-23T11:44:26;101407.50;;;23.05;43.60
60832;BME280;46665;51.558;-0.448;2022-07-23T11:47:03;101412.94;;;23.02;43.35
60832;BME280;46665;51.558;-0.448;2022-07-23T11:49:29;101415.59;;;22.98;42.42
60832;BME280;46665;51.558;-0.448;2022-07-23T11:54:47;101407.97;;;23.20;42.35
60832;BME280;46665;51.558;-0.448;2022-07-23T11:57:12;101413.03;;;23.30;42.22
60832;BME280;46665;51.558;-0.448;2022-07-23T11:59:38;101404.94;;;23.37;41.59
60832;BME280;46665;51.558;-0.448;2022-07-23T12:02:05;101408.25;;;23.55;41.62
60832;BME280;46665;51.558;-0.448;2022-07-23T12:04:38;101413.94;;;23.46;41.61
60832;BME280;46665;51.558;-0.448;2022-07-23T12:07:03;101407.31;;;23.51;41.82
60832;BME280;46665;51.558;-0.448;2022-07-23T12:09:29;101414.16;;;23.53;41.41
60832;BME280;46665;51.558;-0.448;2022-07-23T12:11:59;101408.50;;;23.50;41.72
60832;BME280;46665;51.558;-0.448;2022-07-23T12:14:25;101406.06;;;23.48;41.11
60832;BME280;46665;51.558;-0.448;2022-07-23T12:17:07;101402.47;;;23.48;41.72
60832;BME280;46665;51.558;-0.448;2022-07-23T12:19:32;101395.72;;;23.61;43.16
60832;BME280;46665;51.558;-0.448;2022-07-23T12:21:58;101387.59;;;23.68;42.03
60832;BME280;46665;51.558;-0.448;2022-07-23T12:24:24;101395.31;;;23.87;42.49
60832;BME280;46665;51.558;-0.448;2022-07-23T12:27:22;101413.09;;;24.27;41.76
60832;BME280;46665;51.558;-0.448;2022-07-23T12:29:47;101390.66;;;24.35;40.84
60832;BME280;46665;51.558;-0.448;2022-07-23T12:32:31;101395.88;;;24.37;41.71
60832;BME280;46665;51.558;-0.448;2022-07-23T12:35:07;101397.69;;;24.45;41.77
60832;BME280;46665;51.558;-0.448;2022-07-23T12:37:38;101385.25;;;24.55;42.26
60832;BME280;46665;51.558;-0.448;2022-07-23T12:40:27;101383.97;;;24.68;41.58
60832;BME280;46665;51.558;-0.448;2022-07-23T12:42:59;101383.97;;;24.68;41.58
60832;BME280;46665;51.558;-0.448;2022-07-23T12:45:26;101377.25;;;24.69;42.11
60832;BME280;46665;51.558;-0.448;2022-07-23T12:48:00;101384.16;;;24.75;41.72
60832;BME280;46665;51.558;-0.448;2022-07-23T12:50:34;101381.72;;;24.90;42.93
60832;BME280;46665;51.558;-0.448;2022-07-23T12:53:04;101377.31;;;24.88;42.24
60832;BME280;46665;51.558;-0.448;2022-07-23T12:55:30;101375.63;;;24.84;42.74
60832;BME280;46665;51.558;-0.448;2022-07-23T12:58:11;101367.91;;;24.77;42.93
60832;BME280;46665;51.558;-0.448;2022-07-23T13:03:26;101386.03;;;24.87;42.11
60832;BME280;46665;51.558;-0.448;2022-07-23T13:05:52;101361.31;;;25.01;42.07
60832;BME280;46665;51.558;-0.448;2022-07-23T13:08:18;101355.81;;;25.21;43.17
60832;BME280;46665;51.558;-0.448;2022-07-23T13:10:43;101357.22;;;25.30;41.89
60832;BME280;46665;51.558;-0.448;2022-07-23T13:13:13;101359.59;;;25.48;41.86
60832;BME280;46665;51.558;-0.448;2022-07-23T13:15:38;101360.25;;;25.41;41.59
60832;BME280;46665;51.558;-0.448;2022-07-23T13:18:04;101343.50;;;25.22;41.97
60832;BME280;46665;51.558;-0.448;2022-07-23T13:20:31;101341.63;;;25.10;42.33
60832;BME280;46665;51.558;-0.448;2022-07-23T13:22:57;101349.59;;;25.12;42.41
60832;BME280;46665;51.558;-0.448;2022-07-23T13:25:23;101344.13;;;25.15;42.56
60832;BME280;46665;51.558;-0.448;2022-07-23T13:27:48;101349.34;;;25.17;42.62
60832;BME280;46665;51.558;-0.448;2022-07-23T13:30:14;101339.47;;;25.19;43.46
60832;BME280;46665;51.558;-0.448;2022-07-23T13:32:40;101350.69;;;25.23;43.41
60832;BME280;46665;51.558;-0.448;2022-07-23T13:35:06;101350.31;;;25.24;43.87
60832;BME280;46665;51.558;-0.448;2022-07-23T13:37:31;101355.38;;;25.19;43.39